PWSweather.com
Personal Weather Stations
Station Observations
INORDPAS37
Bondues, BonduesFR 59910

BonduesBonduesFR 59910

Lat: 50.7, Lon: 3.09

Elevation: 102

Station Type: Netatmo

http://bondues.meteoamikuze.com

High Low Average
Temperature 58.5°F14.7°C 40.6°F4.8°C 48.1°F8.9°C
Dew Point 41.9°F5.5°C 29.3°F-1.5°C 34.7°F1.5°C
Winds 4.9 mph 7.9 kmh Calm Calm 2.0 mph SW3.2 kmh SW
Wind Gusts 9.8 mph15.8 kmh 1.3 mph2.1 kmh 4.0 mph6.4 kmh
Humidity 70% 58% 65%
Pressure 30.50 in1032.8 mb 30.28 in1025.4 mb -
Precipitation 0.00 in0.0 mm - -
Hour Temp Dew Point Humidity Winds Wind Gusts Pressure Precip Precip Rate Daily Precip Total
12:01 AM 46.6°F8.1°C 33.4°F0.8°C 65% 1.8 mph SSW2.9 kmh SSW 4.3 mph6.9 kmh 30.28 in1025.4 mb 0.00 in0.0 mm 0.00 in0.0 mm 0.00 in0.0 mm
12:29 AM 46.0°F7.8°C 32.9°F0.5°C 65% 1.8 mph SSW2.9 kmh SSW 3.8 mph6.1 kmh 30.28 in1025.4 mb 0.00 in0.0 mm 0.00 in0.0 mm 0.00 in0.0 mm
12:48 AM 45.7°F7.6°C 32.5°F0.3°C 65% 1.3 mph S2.1 kmh S 2.5 mph4.0 kmh 30.28 in1025.4 mb 0.00 in0.0 mm 0.00 in0.0 mm 0.00 in0.0 mm
01:09 AM 45.0°F7.2°C 31.8°F-0.1°C 65% 1.8 mph S2.9 kmh S 3.1 mph5.0 kmh 30.29 in1025.7 mb 0.00 in0.0 mm 0.00 in0.0 mm 0.00 in0.0 mm
01:29 AM 44.4°F6.9°C 31.3°F-0.4°C 65% 1.3 mph S2.1 kmh S 3.1 mph5.0 kmh 30.29 in1025.7 mb 0.00 in0.0 mm 0.00 in0.0 mm 0.00 in0.0 mm
01:49 AM 44.1°F6.7°C 31.3°F-0.4°C 66% 1.8 mph S2.9 kmh S 2.5 mph4.0 kmh 30.29 in1025.7 mb 0.00 in0.0 mm 0.00 in0.0 mm 0.00 in0.0 mm
01:59 AM 43.9°F6.6°C 31.3°F-0.4°C 66% 1.3 mph S2.1 kmh S 2.5 mph4.0 kmh 30.30 in1026.1 mb 0.00 in0.0 mm 0.00 in0.0 mm 0.00 in0.0 mm
02:20 AM 43.5°F6.4°C 30.9°F-0.6°C 66% 0.7 mph SSE1.1 kmh SSE 1.3 mph2.1 kmh 30.31 in1026.4 mb 0.00 in0.0 mm 0.00 in0.0 mm 0.00 in0.0 mm
02:39 AM 43.2°F6.2°C 30.6°F-0.8°C 66% 0.7 mph S1.1 kmh S 1.3 mph2.1 kmh 30.31 in1026.4 mb 0.00 in0.0 mm 0.00 in0.0 mm 0.00 in0.0 mm
03:00 AM 42.8°F6.0°C 30.2°F-1.0°C 66% 1.8 mph SSW2.9 kmh SSW 4.3 mph6.9 kmh 30.30 in1026.1 mb 0.00 in0.0 mm 0.00 in0.0 mm 0.00 in0.0 mm
03:19 AM 43.2°F6.2°C 30.9°F-0.6°C 67% 1.8 mph SSW2.9 kmh SSW 3.8 mph6.1 kmh 30.31 in1026.4 mb 0.00 in0.0 mm 0.00 in0.0 mm 0.00 in0.0 mm
03:40 AM 43.5°F6.4°C 31.3°F-0.4°C 67% 1.8 mph S2.9 kmh S 3.8 mph6.1 kmh 30.31 in1026.4 mb 0.00 in0.0 mm 0.00 in0.0 mm 0.00 in0.0 mm
04:00 AM 43.5°F6.4°C 31.3°F-0.4°C 67% 1.8 mph SSW2.9 kmh SSW 3.1 mph5.0 kmh 30.31 in1026.4 mb 0.00 in0.0 mm 0.00 in0.0 mm 0.00 in0.0 mm
04:20 AM 43.2°F6.2°C 30.9°F-0.6°C 67% 1.8 mph S2.9 kmh S 3.8 mph6.1 kmh 30.30 in1026.1 mb 0.00 in0.0 mm 0.00 in0.0 mm 0.00 in0.0 mm
04:41 AM 42.8°F6.0°C 30.6°F-0.8°C 67% 1.8 mph S2.9 kmh S 3.8 mph6.1 kmh 30.30 in1026.1 mb 0.00 in0.0 mm 0.00 in0.0 mm 0.00 in0.0 mm
05:00 AM 42.6°F5.9°C 30.7°F-0.7°C 68% 2.5 mph S4.0 kmh S 4.3 mph6.9 kmh 30.29 in1025.7 mb 0.00 in0.0 mm 0.00 in0.0 mm 0.00 in0.0 mm
05:21 AM 42.8°F6.0°C 30.9°F-0.6°C 68% 1.8 mph S2.9 kmh S 3.1 mph5.0 kmh 30.29 in1025.7 mb 0.00 in0.0 mm 0.00 in0.0 mm 0.00 in0.0 mm
05:40 AM 42.6°F5.9°C 30.7°F-0.7°C 68% 1.3 mph S2.1 kmh S 2.5 mph4.0 kmh 30.30 in1026.1 mb 0.00 in0.0 mm 0.00 in0.0 mm 0.00 in0.0 mm
06:01 AM 42.1°F5.6°C 30.2°F-1.0°C 68% 1.8 mph SSW2.9 kmh SSW 4.3 mph6.9 kmh 30.30 in1026.1 mb 0.00 in0.0 mm 0.00 in0.0 mm 0.00 in0.0 mm
06:21 AM 42.1°F5.6°C 30.2°F-1.0°C 68% 1.8 mph S2.9 kmh S 3.8 mph6.1 kmh 30.30 in1026.1 mb 0.00 in0.0 mm 0.00 in0.0 mm 0.00 in0.0 mm
06:41 AM 42.1°F5.6°C 30.6°F-0.8°C 69% 1.3 mph S2.1 kmh S 3.1 mph5.0 kmh 30.31 in1026.4 mb 0.00 in0.0 mm 0.00 in0.0 mm 0.00 in0.0 mm
07:02 AM 41.5°F5.3°C 30.0°F-1.1°C 69% 1.3 mph S2.1 kmh S 2.5 mph4.0 kmh 30.31 in1026.4 mb 0.00 in0.0 mm 0.00 in0.0 mm 0.00 in0.0 mm
07:21 AM 41.2°F5.1°C 29.7°F-1.3°C 69% 1.3 mph S2.1 kmh S 2.5 mph4.0 kmh 30.31 in1026.4 mb 0.00 in0.0 mm 0.00 in0.0 mm 0.00 in0.0 mm
07:42 AM 40.6°F4.8°C 29.3°F-1.5°C 69% 1.8 mph S2.9 kmh S 3.8 mph6.1 kmh 30.32 in1026.8 mb 0.00 in0.0 mm 0.00 in0.0 mm 0.00 in0.0 mm
08:01 AM 41.0°F5.0°C 29.5°F-1.4°C 69% 1.3 mph S2.1 kmh S 2.5 mph4.0 kmh 30.32 in1026.8 mb 0.00 in0.0 mm 0.00 in0.0 mm 0.00 in0.0 mm
08:22 AM 41.0°F5.0°C 29.5°F-1.4°C 69% 1.8 mph SSE2.9 kmh SSE 3.1 mph5.0 kmh 30.33 in1027.1 mb 0.00 in0.0 mm 0.00 in0.0 mm 0.00 in0.0 mm
08:42 AM 41.2°F5.1°C 29.7°F-1.3°C 69% 1.3 mph S2.1 kmh S 2.5 mph4.0 kmh 30.34 in1027.4 mb 0.00 in0.0 mm 0.00 in0.0 mm 0.00 in0.0 mm
09:02 AM 42.1°F5.6°C 30.9°F-0.6°C 70% 1.3 mph S2.1 kmh S 2.5 mph4.0 kmh 30.34 in1027.4 mb 0.00 in0.0 mm 0.00 in0.0 mm 0.00 in0.0 mm
09:23 AM 42.8°F6.0°C 31.6°F-0.2°C 70% 1.3 mph S2.1 kmh S 3.1 mph5.0 kmh 30.34 in1027.4 mb 0.00 in0.0 mm 0.00 in0.0 mm 0.00 in0.0 mm
09:42 AM 44.1°F6.7°C 32.9°F0.5°C 70% 1.8 mph SW2.9 kmh SW 3.8 mph6.1 kmh 30.35 in1027.8 mb 0.00 in0.0 mm 0.00 in0.0 mm 0.00 in0.0 mm
10:03 AM 45.1°F7.3°C 34.0°F1.1°C 70% 1.8 mph SSW2.9 kmh SSW 3.8 mph6.1 kmh 30.36 in1028.1 mb 0.00 in0.0 mm 0.00 in0.0 mm 0.00 in0.0 mm
10:22 AM 46.6°F8.1°C 35.2°F1.8°C 70% 1.8 mph SW2.9 kmh SW 4.3 mph6.9 kmh 30.36 in1028.1 mb 0.00 in0.0 mm 0.00 in0.0 mm 0.00 in0.0 mm
10:43 AM 48.7°F9.3°C 37.4°F3.0°C 70% 1.8 mph SW2.9 kmh SW 3.8 mph6.1 kmh 30.37 in1028.4 mb 0.00 in0.0 mm 0.00 in0.0 mm 0.00 in0.0 mm
11:02 AM 50.7°F10.4°C 38.8°F3.8°C 69% 2.5 mph SW4.0 kmh SW 5.6 mph9.0 kmh 30.38 in1028.8 mb 0.00 in0.0 mm 0.00 in0.0 mm 0.00 in0.0 mm
11:23 AM 53.1°F11.7°C 40.6°F4.8°C 68% 1.8 mph WSW2.9 kmh WSW 3.8 mph6.1 kmh 30.38 in1028.8 mb 0.00 in0.0 mm 0.00 in0.0 mm 0.00 in0.0 mm
11:44 AM 53.6°F12.0°C 40.1°F4.5°C 65% 3.8 mph W6.1 kmh W 6.9 mph11.1 kmh 30.39 in1029.1 mb 0.00 in0.0 mm 0.00 in0.0 mm 0.00 in0.0 mm
12:03 PM 53.2°F11.8°C 40.1°F4.5°C 66% 4.3 mph SW6.9 kmh SW 8.7 mph14.0 kmh 30.37 in1028.4 mb 0.00 in0.0 mm 0.00 in0.0 mm 0.00 in0.0 mm
12:24 PM 53.2°F11.8°C 39.4°F4.1°C 64% 4.9 mph WSW7.9 kmh WSW 9.8 mph15.8 kmh 30.37 in1028.4 mb 0.00 in0.0 mm 0.00 in0.0 mm 0.00 in0.0 mm
12:43 PM 53.8°F12.1°C 39.9°F4.4°C 64% 3.1 mph W5.0 kmh W 8.1 mph13.0 kmh 30.37 in1028.4 mb 0.00 in0.0 mm 0.00 in0.0 mm 0.00 in0.0 mm
01:04 PM 55.0°F12.8°C 40.6°F4.8°C 63% 3.1 mph WSW5.0 kmh WSW 8.1 mph13.0 kmh 30.37 in1028.4 mb 0.00 in0.0 mm 0.00 in0.0 mm 0.00 in0.0 mm
01:23 PM 55.8°F13.2°C 41.0°F5.0°C 62% 3.1 mph WSW5.0 kmh WSW 7.4 mph11.9 kmh 30.37 in1028.4 mb 0.00 in0.0 mm 0.00 in0.0 mm 0.00 in0.0 mm
01:44 PM 56.5°F13.6°C 40.5°F4.7°C 59% 3.8 mph WSW6.1 kmh WSW 8.1 mph13.0 kmh 30.37 in1028.4 mb 0.00 in0.0 mm 0.00 in0.0 mm 0.00 in0.0 mm
02:04 PM 56.8°F13.8°C 40.3°F4.6°C 58% 3.8 mph WSW6.1 kmh WSW 9.4 mph15.1 kmh 30.37 in1028.4 mb 0.00 in0.0 mm 0.00 in0.0 mm 0.00 in0.0 mm
02:24 PM 56.8°F13.8°C 40.3°F4.6°C 58% 3.1 mph W5.0 kmh W 8.1 mph13.0 kmh 30.37 in1028.4 mb 0.00 in0.0 mm 0.00 in0.0 mm 0.00 in0.0 mm
02:45 PM 56.8°F13.8°C 40.8°F4.9°C 59% 3.1 mph WSW5.0 kmh WSW 5.6 mph9.0 kmh 30.37 in1028.4 mb 0.00 in0.0 mm 0.00 in0.0 mm 0.00 in0.0 mm
03:04 PM 57.0°F13.9°C 40.5°F4.7°C 58% 3.1 mph WSW5.0 kmh WSW 8.1 mph13.0 kmh 30.37 in1028.4 mb 0.00 in0.0 mm 0.00 in0.0 mm 0.00 in0.0 mm
03:25 PM 57.7°F14.3°C 41.2°F5.1°C 58% 2.5 mph W4.0 kmh W 4.9 mph7.9 kmh 30.37 in1028.4 mb 0.00 in0.0 mm 0.00 in0.0 mm 0.00 in0.0 mm
03:44 PM 58.3°F14.6°C 41.7°F5.4°C 58% 2.5 mph W4.0 kmh W 5.6 mph9.0 kmh 30.38 in1028.8 mb 0.00 in0.0 mm 0.00 in0.0 mm 0.00 in0.0 mm
04:05 PM 58.5°F14.7°C 41.9°F5.5°C 58% 1.8 mph WSW2.9 kmh WSW 6.9 mph11.1 kmh 30.38 in1028.8 mb 0.00 in0.0 mm 0.00 in0.0 mm 0.00 in0.0 mm
04:25 PM 58.3°F14.6°C 41.7°F5.4°C 58% 1.8 mph WSW2.9 kmh WSW 3.8 mph6.1 kmh 30.39 in1029.1 mb 0.00 in0.0 mm 0.00 in0.0 mm 0.00 in0.0 mm
04:45 PM 57.2°F14.0°C 40.6°F4.8°C 58% 2.5 mph W4.0 kmh W 4.3 mph6.9 kmh 30.39 in1029.1 mb 0.00 in0.0 mm 0.00 in0.0 mm 0.00 in0.0 mm
05:05 PM 56.7°F13.7°C 40.1°F4.5°C 58% 2.5 mph W4.0 kmh W 4.9 mph7.9 kmh 30.40 in1029.5 mb 0.00 in0.0 mm 0.00 in0.0 mm 0.00 in0.0 mm
05:25 PM 56.1°F13.4°C 39.7°F4.3°C 58% 1.8 mph W2.9 kmh W 3.8 mph6.1 kmh 30.40 in1029.5 mb 0.00 in0.0 mm 0.00 in0.0 mm 0.00 in0.0 mm
05:45 PM 55.6°F13.1°C 39.6°F4.2°C 59% 1.3 mph WSW2.1 kmh WSW 2.5 mph4.0 kmh 30.40 in1029.5 mb 0.00 in0.0 mm 0.00 in0.0 mm 0.00 in0.0 mm
06:05 PM 54.9°F12.7°C 38.8°F3.8°C 59% 1.3 mph W2.1 kmh W 3.8 mph6.1 kmh 30.41 in1029.8 mb 0.00 in0.0 mm 0.00 in0.0 mm 0.00 in0.0 mm
06:22 PM 54.1°F12.3°C 38.1°F3.4°C 59% 1.3 mph SW2.1 kmh SW 2.5 mph4.0 kmh 30.42 in1030.1 mb 0.00 in0.0 mm 0.00 in0.0 mm 0.00 in0.0 mm
06:41 PM 53.1°F11.7°C 37.6°F3.1°C 60% 0.7 mph W1.1 kmh W 1.8 mph2.9 kmh 30.42 in1030.1 mb 0.00 in0.0 mm 0.00 in0.0 mm 0.00 in0.0 mm
07:02 PM 52.0°F11.1°C 36.5°F2.5°C 60% 1.3 mph W2.1 kmh W 3.1 mph5.0 kmh 30.42 in1030.1 mb 0.00 in0.0 mm 0.00 in0.0 mm 0.00 in0.0 mm
07:21 PM 50.9°F10.5°C 36.0°F2.2°C 61% 0.7 mph W1.1 kmh W 1.8 mph2.9 kmh 30.43 in1030.5 mb 0.00 in0.0 mm 0.00 in0.0 mm 0.00 in0.0 mm
07:42 PM 50.0°F10.0°C 35.1°F1.7°C 61% 1.3 mph WSW2.1 kmh WSW 2.5 mph4.0 kmh 30.45 in1031.2 mb 0.00 in0.0 mm 0.00 in0.0 mm 0.00 in0.0 mm
08:02 PM 49.1°F9.5°C 34.7°F1.5°C 62% 1.3 mph SW2.1 kmh SW 3.1 mph5.0 kmh 30.44 in1030.8 mb 0.00 in0.0 mm 0.00 in0.0 mm 0.00 in0.0 mm
08:22 PM 48.4°F9.1°C 34.3°F1.3°C 63% 1.3 mph W2.1 kmh W 3.1 mph5.0 kmh 30.45 in1031.2 mb 0.00 in0.0 mm 0.00 in0.0 mm 0.00 in0.0 mm
08:43 PM 47.7°F8.7°C 34.0°F1.1°C 64% 1.3 mph W2.1 kmh W 2.5 mph4.0 kmh 30.45 in1031.2 mb 0.00 in0.0 mm 0.00 in0.0 mm 0.00 in0.0 mm
09:03 PM 46.9°F8.3°C 33.3°F0.7°C 64% Calm Calm 1.3 mph2.1 kmh 30.47 in1031.8 mb 0.00 in0.0 mm 0.00 in0.0 mm 0.00 in0.0 mm
09:23 PM 46.4°F8.0°C 33.3°F0.7°C 65% 0.7 mph SW1.1 kmh SW 1.3 mph2.1 kmh 30.47 in1031.8 mb 0.00 in0.0 mm 0.00 in0.0 mm 0.00 in0.0 mm
09:43 PM 45.7°F7.6°C 32.5°F0.3°C 65% 0.7 mph W1.1 kmh W 1.8 mph2.9 kmh 30.48 in1032.2 mb 0.00 in0.0 mm 0.00 in0.0 mm 0.00 in0.0 mm
10:04 PM 45.1°F7.3°C 32.0°F0.0°C 65% 0.7 mph SSW1.1 kmh SSW 1.3 mph2.1 kmh 30.48 in1032.2 mb 0.00 in0.0 mm 0.00 in0.0 mm 0.00 in0.0 mm
10:23 PM 44.6°F7.0°C 31.8°F-0.1°C 66% 1.3 mph W2.1 kmh W 2.5 mph4.0 kmh 30.49 in1032.5 mb 0.00 in0.0 mm 0.00 in0.0 mm 0.00 in0.0 mm
10:44 PM 44.2°F6.8°C 31.5°F-0.3°C 66% 1.3 mph W2.1 kmh W 2.5 mph4.0 kmh 30.49 in1032.5 mb 0.00 in0.0 mm 0.00 in0.0 mm 0.00 in0.0 mm
11:04 PM 43.9°F6.6°C 32.0°F0.0°C 68% 1.3 mph W2.1 kmh W 4.3 mph6.9 kmh 30.49 in1032.5 mb 0.00 in0.0 mm 0.00 in0.0 mm 0.00 in0.0 mm
11:24 PM 43.3°F6.3°C 31.5°F-0.3°C 68% 0.7 mph W1.1 kmh W 1.8 mph2.9 kmh 30.50 in1032.8 mb 0.00 in0.0 mm 0.00 in0.0 mm 0.00 in0.0 mm
11:45 PM 43.2°F6.2°C 31.6°F-0.2°C 69% 1.8 mph SW2.9 kmh SW 3.8 mph6.1 kmh 30.50 in1032.8 mb 0.00 in0.0 mm 0.00 in0.0 mm 0.00 in0.0 mm
11:55 PM 43.0°F6.1°C 31.5°F-0.3°C 69% 1.3 mph W2.1 kmh W 2.5 mph4.0 kmh 30.50 in1032.8 mb 0.00 in0.0 mm 0.00 in0.0 mm 0.00 in0.0 mm